createdAt,value
2023-03-13T00:01:35.463Z,5.01
2023-03-13T00:04:05.022Z,4.91
2023-03-13T00:06:37.563Z,4.98
2023-03-13T00:09:08.998Z,4.90
2023-03-13T00:11:36.158Z,4.79
2023-03-13T00:14:04.441Z,4.76
2023-03-13T00:16:31.516Z,4.51
2023-03-13T00:18:59.020Z,4.78
2023-03-13T00:21:29.469Z,4.86
2023-03-13T00:23:57.885Z,4.86
2023-03-13T00:26:26.673Z,4.88
2023-03-13T00:28:53.907Z,4.85
2023-03-13T00:31:24.764Z,4.85
2023-03-13T00:33:54.183Z,4.92
2023-03-13T00:36:20.578Z,4.96
2023-03-13T00:38:47.759Z,4.73
2023-03-13T00:41:17.801Z,4.82
2023-03-13T00:43:45.750Z,4.77
2023-03-13T00:46:14.335Z,4.69
2023-03-13T00:48:41.581Z,4.84
2023-03-13T00:51:12.002Z,4.78
2023-03-13T00:53:38.894Z,4.67
2023-03-13T00:56:10.830Z,4.76
2023-03-13T00:58:42.496Z,4.85
2023-03-13T01:01:28.590Z,4.84
2023-03-13T01:04:05.204Z,4.84
2023-03-13T01:06:36.029Z,4.90
2023-03-13T01:09:10.835Z,4.99
2023-03-13T01:11:39.607Z,4.89
2023-03-13T01:14:12.923Z,4.87
2023-03-13T01:16:40.589Z,4.75
2023-03-13T01:19:14.001Z,4.35
2023-03-13T01:21:44.731Z,4.68
2023-03-13T01:24:13.979Z,4.70
2023-03-13T01:26:40.781Z,4.77
2023-03-13T01:29:07.372Z,4.80
2023-03-13T01:31:35.810Z,4.75
2023-03-13T01:34:05.169Z,4.86
2023-03-13T01:36:32.008Z,4.96
2023-03-13T01:39:00.789Z,4.91
2023-03-13T01:41:31.087Z,5.00
2023-03-13T01:44:01.082Z,4.99
2023-03-13T01:46:29.696Z,5.08
2023-03-13T01:49:07.892Z,5.04
2023-03-13T01:51:37.129Z,5.14
2023-03-13T01:54:06.832Z,5.05
2023-03-13T01:56:56.974Z,5.10
2023-03-13T01:59:30.493Z,5.12
2023-03-13T02:02:03.973Z,5.07
2023-03-13T02:04:37.339Z,5.14
2023-03-13T02:07:23.519Z,4.93
2023-03-13T02:09:54.141Z,4.96
2023-03-13T02:12:37.840Z,5.03
2023-03-13T02:15:15.143Z,4.99
2023-03-13T02:17:46.043Z,5.14
2023-03-13T02:20:16.903Z,5.06
2023-03-13T02:23:05.577Z,5.04
2023-03-13T02:25:50.451Z,5.15
2023-03-13T02:28:33.376Z,5.16
2023-03-13T02:31:03.823Z,5.02
2023-03-13T02:33:39.033Z,4.95
2023-03-13T02:36:07.100Z,4.98
2023-03-13T02:38:47.595Z,5.01
2023-03-13T02:41:19.154Z,5.06
2023-03-13T02:43:45.793Z,5.05
2023-03-13T02:46:22.045Z,4.98
2023-03-13T02:48:54.142Z,4.98
2023-03-13T02:51:25.681Z,4.89
2023-03-13T02:53:58.631Z,4.69
2023-03-13T02:56:33.963Z,4.51
2023-03-13T02:59:05.032Z,4.51
2023-03-13T03:01:31.609Z,4.58
2023-03-13T03:03:58.249Z,4.52
2023-03-13T03:06:27.251Z,4.62
2023-03-13T03:08:53.937Z,4.68
2023-03-13T03:11:20.594Z,4.70
2023-03-13T03:13:47.197Z,4.64
2023-03-13T03:16:21.280Z,4.66
2023-03-13T03:18:50.068Z,4.49
2023-03-13T03:21:19.051Z,4.48
2023-03-13T03:23:45.761Z,4.57
2023-03-13T03:26:14.687Z,4.45
2023-03-13T03:28:43.524Z,4.48
2023-03-13T03:31:16.376Z,4.38
2023-03-13T03:33:46.950Z,4.44
2023-03-13T03:36:16.918Z,4.44
2023-03-13T03:38:46.743Z,4.39
2023-03-13T03:41:14.316Z,4.22
2023-03-13T03:43:41.154Z,4.12
2023-03-13T03:46:12.509Z,4.06
2023-03-13T03:48:41.671Z,4.10
2023-03-13T03:51:10.472Z,4.06
2023-03-13T03:53:37.157Z,4.03
2023-03-13T03:56:07.009Z,4.20
2023-03-13T03:58:33.724Z,4.20
2023-03-13T04:01:02.944Z,4.07
2023-03-13T04:03:32.147Z,3.73
2023-03-13T04:06:01.808Z,3.93
2023-03-13T04:08:28.498Z,3.93
2023-03-13T04:10:55.056Z,4.01
2023-03-13T04:13:21.711Z,4.05
2023-03-13T04:15:49.053Z,4.02
2023-03-13T04:18:16.710Z,3.87
2023-03-13T04:20:46.773Z,3.97
2023-03-13T04:23:13.438Z,4.00
2023-03-13T04:25:40.052Z,3.90
2023-03-13T04:28:06.856Z,3.96
2023-03-13T04:30:33.503Z,4.10
2023-03-13T04:33:03.677Z,4.16
2023-03-13T04:35:30.539Z,4.18
2023-03-13T04:37:57.112Z,4.27
2023-03-13T04:40:23.918Z,4.16
2023-03-13T04:42:52.682Z,4.16
2023-03-13T04:45:19.416Z,4.13
2023-03-13T04:47:51.433Z,4.15
2023-03-13T04:50:18.244Z,4.29
2023-03-13T04:52:44.837Z,4.16
2023-03-13T04:55:11.479Z,4.24
2023-03-13T04:57:40.234Z,4.14
2023-03-13T05:00:08.250Z,4.28
2023-03-13T05:02:37.388Z,4.12
2023-03-13T05:05:08.593Z,4.06
2023-03-13T05:07:35.381Z,4.10
2023-03-13T05:10:01.985Z,4.15
2023-03-13T05:12:30.926Z,4.21
2023-03-13T05:14:59.866Z,4.25
2023-03-13T05:17:28.716Z,4.29
2023-03-13T05:19:57.498Z,4.35
2023-03-13T05:22:26.294Z,4.30
2023-03-13T05:24:55.501Z,4.31
2023-03-13T05:27:22.113Z,4.41
2023-03-13T05:29:48.738Z,4.60
2023-03-13T05:32:15.382Z,4.65
2023-03-13T05:34:42.124Z,4.64
2023-03-13T05:37:08.739Z,4.61
2023-03-13T05:39:35.426Z,4.57
2023-03-13T05:42:02.055Z,4.64
2023-03-13T05:44:28.753Z,4.56
2023-03-13T05:46:55.574Z,4.66
2023-03-13T05:49:22.227Z,4.54
2023-03-13T05:51:48.834Z,4.72
2023-03-13T05:54:15.743Z,4.80
2023-03-13T05:56:45.048Z,4.56
2023-03-13T05:59:13.870Z,4.70
2023-03-13T06:01:42.877Z,4.69
2023-03-13T06:04:12.055Z,4.77
2023-03-13T06:06:41.952Z,4.68
2023-03-13T06:09:08.618Z,4.83
2023-03-13T06:11:38.213Z,4.90
2023-03-13T06:14:04.847Z,4.99
2023-03-13T06:16:34.227Z,5.08
2023-03-13T06:19:01.207Z,4.70
2023-03-13T06:21:28.406Z,4.85
2023-03-13T06:23:58.190Z,4.76
2023-03-13T06:26:27.214Z,4.85
2023-03-13T06:28:56.501Z,4.75
2023-03-13T06:31:23.272Z,4.76
2023-03-13T06:33:56.399Z,4.86
2023-03-13T06:36:25.661Z,4.91
2023-03-13T06:38:52.169Z,4.96
2023-03-13T06:41:19.131Z,5.03
2023-03-13T06:43:45.799Z,5.02
2023-03-13T06:46:24.718Z,5.04
2023-03-13T06:48:51.793Z,4.97
2023-03-13T06:51:26.259Z,5.01
2023-03-13T06:53:57.572Z,5.15
2023-03-13T06:56:24.377Z,4.99
2023-03-13T06:58:53.765Z,5.03
2023-03-13T07:01:23.064Z,5.39
2023-03-13T07:03:49.888Z,5.30
2023-03-13T07:06:17.276Z,5.23
2023-03-13T07:08:47.131Z,5.53
2023-03-13T07:11:16.594Z,5.56
2023-03-13T07:13:43.162Z,5.69
2023-03-13T07:16:12.731Z,5.69
2023-03-13T07:18:42.016Z,5.72
2023-03-13T07:21:09.928Z,5.75
2023-03-13T07:23:38.673Z,5.70
2023-03-13T07:26:11.368Z,5.81
2023-03-13T07:28:43.644Z,5.81
2023-03-13T07:31:21.893Z,5.97
2023-03-13T07:33:52.450Z,6.01
2023-03-13T07:36:21.431Z,5.99
2023-03-13T07:38:49.181Z,6.09
2023-03-13T07:41:16.143Z,6.18
2023-03-13T07:43:45.729Z,6.26
2023-03-13T07:46:15.872Z,6.32
2023-03-13T07:48:43.403Z,6.40
2023-03-13T07:51:18.310Z,6.45
2023-03-13T07:53:48.463Z,6.49
2023-03-13T07:56:19.821Z,6.52
2023-03-13T07:58:46.624Z,6.60
2023-03-13T08:01:17.141Z,6.76
2023-03-13T08:03:49.303Z,6.79
2023-03-13T08:06:23.385Z,6.86
2023-03-13T08:08:51.423Z,7.00
2023-03-13T08:11:28.437Z,7.22
2023-03-13T08:13:56.626Z,7.44
2023-03-13T08:16:32.374Z,7.54
2023-03-13T08:19:05.965Z,7.55
2023-03-13T08:21:37.077Z,7.69
2023-03-13T08:24:07.372Z,7.79
2023-03-13T08:26:36.019Z,7.82
2023-03-13T08:29:06.551Z,7.95
2023-03-13T08:31:47.979Z,8.00
2023-03-13T08:34:16.170Z,8.18
2023-03-13T08:36:42.908Z,8.18
2023-03-13T08:39:12.478Z,8.36
2023-03-13T08:41:40.832Z,8.48
2023-03-13T08:44:12.826Z,8.69
2023-03-13T08:46:42.096Z,8.67
2023-03-13T08:49:12.281Z,8.86
2023-03-13T08:51:39.564Z,8.93
2023-03-13T08:54:08.465Z,8.89
2023-03-13T08:56:37.375Z,9.01
2023-03-13T08:59:06.388Z,8.95
2023-03-13T09:01:38.376Z,9.14
2023-03-13T09:04:08.942Z,9.22
2023-03-13T09:06:37.481Z,9.13
2023-03-13T09:09:05.803Z,9.43
2023-03-13T09:15:19.718Z,9.85
2023-03-13T09:17:48.692Z,9.84
2023-03-13T09:20:15.392Z,9.99
2023-03-13T09:22:42.012Z,10.11
2023-03-13T09:25:11.615Z,10.30
2023-03-13T09:27:43.579Z,10.39
2023-03-13T09:30:13.337Z,10.18
2023-03-13T09:32:40.139Z,10.34
2023-03-13T09:35:07.053Z,10.57
2023-03-13T09:37:33.661Z,10.73
2023-03-13T09:40:01.167Z,10.99
2023-03-13T09:42:43.166Z,11.01
2023-03-13T09:45:17.983Z,11.12
2023-03-13T09:47:54.904Z,11.21
2023-03-13T09:50:33.370Z,11.22
2023-03-13T09:53:07.597Z,11.30
2023-03-13T09:55:38.410Z,11.42
2023-03-13T09:58:13.401Z,11.60
2023-03-13T10:00:42.083Z,11.65
2023-03-13T10:03:11.551Z,11.71
2023-03-13T10:05:50.058Z,11.81
2023-03-13T10:08:53.408Z,11.84
2023-03-13T10:12:06.596Z,12.60
2023-03-13T10:14:42.647Z,12.68
2023-03-13T10:20:59.859Z,12.86
2023-03-13T10:23:41.354Z,12.93
2023-03-13T10:26:21.883Z,13.15
2023-03-13T10:28:53.621Z,13.11
2023-03-13T10:31:37.731Z,13.43
2023-03-13T10:34:14.355Z,13.59
2023-03-13T10:36:52.256Z,13.32
2023-03-13T10:39:22.063Z,13.51
2023-03-13T10:42:38.714Z,13.75
2023-03-13T10:45:08.576Z,14.07
2023-03-13T10:47:37.989Z,13.91
2023-03-13T10:50:05.138Z,14.29
2023-03-13T10:52:34.007Z,14.13
2023-03-13T10:55:04.553Z,14.31
2023-03-13T10:57:44.594Z,14.21
2023-03-13T11:00:39.178Z,14.45
2023-03-13T11:03:17.013Z,14.48
2023-03-13T11:06:07.858Z,14.87
2023-03-13T11:08:36.552Z,14.62
2023-03-13T11:11:19.553Z,14.63
2023-03-13T11:13:46.916Z,14.69
2023-03-13T11:16:29.964Z,14.66
2023-03-13T11:18:59.672Z,14.70
2023-03-13T11:29:02.868Z,14.83
2023-03-13T11:32:07.370Z,14.97
2023-03-13T11:34:46.478Z,15.15
2023-03-13T11:37:28.412Z,15.29
2023-03-13T11:40:54.836Z,15.33
2023-03-13T11:44:03.016Z,15.27
2023-03-13T11:47:06.912Z,15.05
2023-03-13T11:50:11.929Z,14.99
2023-03-13T11:52:55.523Z,15.36
2023-03-13T11:55:27.841Z,15.49
2023-03-13T11:58:31.301Z,14.99
2023-03-13T12:01:27.257Z,14.94
2023-03-13T12:04:04.170Z,15.12
2023-03-13T12:06:35.080Z,15.46
2023-03-13T12:09:14.586Z,15.36
2023-03-13T12:12:15.434Z,15.63
2023-03-13T12:15:01.944Z,15.73
2023-03-13T12:21:49.891Z,15.80
2023-03-13T12:24:41.616Z,15.16
2023-03-13T12:27:38.052Z,15.48
2023-03-13T12:30:42.137Z,15.58
2023-03-13T12:33:44.295Z,15.61
2023-03-13T12:36:20.595Z,15.80
2023-03-13T12:39:27.600Z,15.80
2023-03-13T12:42:22.047Z,15.79
2023-03-13T12:45:00.239Z,15.73
2023-03-13T12:47:55.353Z,16.01
2023-03-13T12:50:36.836Z,15.94
2023-03-13T12:53:21.948Z,16.18
2023-03-13T12:55:52.776Z,16.10
2023-03-13T12:58:38.270Z,16.33
2023-03-13T13:01:52.463Z,16.29
2023-03-13T13:04:34.713Z,16.32
2023-03-13T13:07:30.882Z,16.45
2023-03-13T13:10:12.011Z,16.54
2023-03-13T13:12:39.838Z,16.60
2023-03-13T13:15:28.543Z,16.49
2023-03-13T13:18:35.702Z,16.38
2023-03-13T13:21:05.029Z,16.22
2023-03-13T13:23:34.481Z,16.18
2023-03-13T13:26:37.019Z,16.23
2023-03-13T13:29:15.054Z,16.44
2023-03-13T13:31:46.228Z,16.59
2023-03-13T13:34:48.994Z,16.66
2023-03-13T13:37:41.599Z,16.66
2023-03-13T13:40:22.894Z,16.55
2023-03-13T13:43:03.195Z,16.41
2023-03-13T13:45:33.750Z,16.29
2023-03-13T13:48:43.101Z,16.42
2023-03-13T13:51:24.015Z,16.39
2023-03-13T13:53:54.883Z,16.16
2023-03-13T13:57:02.356Z,16.28
2023-03-13T14:03:49.273Z,16.43
2023-03-13T14:06:24.808Z,16.24
2023-03-13T14:08:56.223Z,16.11
2023-03-13T14:11:39.200Z,15.90
2023-03-13T14:14:20.885Z,15.89
2023-03-13T14:16:59.494Z,15.88
2023-03-13T14:22:22.793Z,15.92
2023-03-13T14:25:22.447Z,16.02
2023-03-13T14:27:52.735Z,15.93
2023-03-13T14:30:59.142Z,15.80
2023-03-13T14:33:29.660Z,15.76
2023-03-13T14:35:57.865Z,15.72
2023-03-13T14:38:32.682Z,15.88
2023-03-13T14:41:05.069Z,15.84
2023-03-13T14:43:42.717Z,15.87
2023-03-13T14:46:42.040Z,15.77
2023-03-13T14:49:31.751Z,15.76
2023-03-13T14:51:58.406Z,15.77
2023-03-13T14:54:37.794Z,15.61
2023-03-13T14:57:10.507Z,15.67
2023-03-13T14:59:37.114Z,15.67
2023-03-13T15:02:32.427Z,15.76
2023-03-13T15:05:05.142Z,15.75
2023-03-13T15:07:53.683Z,15.52
2023-03-13T15:13:37.344Z,15.61
2023-03-13T15:16:22.013Z,15.26
2023-03-13T15:18:55.341Z,15.36
2023-03-13T15:21:29.377Z,15.41
2023-03-13T15:23:58.945Z,15.48
2023-03-13T15:26:29.443Z,15.18
2023-03-13T15:28:58.760Z,15.07
2023-03-13T15:31:28.898Z,15.03
2023-03-13T15:33:59.182Z,15.01
2023-03-13T15:36:27.466Z,14.94
2023-03-13T15:38:54.559Z,14.75
2023-03-13T15:41:26.126Z,14.53
2023-03-13T15:43:58.949Z,14.61
2023-03-13T15:46:26.717Z,14.55
2023-03-13T15:48:54.038Z,14.54
2023-03-13T15:51:22.866Z,14.53
2023-03-13T15:53:49.506Z,14.48
2023-03-13T15:56:23.079Z,14.20
2023-03-13T15:59:00.750Z,13.97
2023-03-13T16:01:33.351Z,14.06
2023-03-13T16:04:02.762Z,14.17
2023-03-13T16:06:37.679Z,13.92
2023-03-13T16:09:09.713Z,13.91
2023-03-13T16:11:38.928Z,13.94
2023-03-13T16:14:26.164Z,13.73
2023-03-13T16:17:12.620Z,13.54
2023-03-13T16:19:39.286Z,13.54
2023-03-13T16:22:05.873Z,13.61
2023-03-13T16:24:42.360Z,13.60
2023-03-13T16:27:20.077Z,13.43
2023-03-13T16:29:47.015Z,13.45
2023-03-13T16:32:17.304Z,13.50
2023-03-13T16:38:16.217Z,13.35
2023-03-13T16:40:57.427Z,13.27
2023-03-13T16:43:53.225Z,13.19
2023-03-13T16:47:13.828Z,13.22
2023-03-13T16:53:23.320Z,13.11
2023-03-13T16:55:52.198Z,13.03
2023-03-13T16:59:09.076Z,12.96
2023-03-13T17:01:47.123Z,12.93
2023-03-13T17:04:44.429Z,12.87
2023-03-13T17:07:25.325Z,12.71
2023-03-13T17:09:53.220Z,12.79
2023-03-13T17:12:22.253Z,12.67
2023-03-13T17:14:51.424Z,12.64
2023-03-13T17:17:31.771Z,12.74
2023-03-13T17:20:05.915Z,12.63
2023-03-13T17:22:34.922Z,12.54
2023-03-13T17:25:01.460Z,12.56
2023-03-13T17:27:30.675Z,12.52
2023-03-13T17:29:57.276Z,12.51
2023-03-13T17:32:26.929Z,12.45
2023-03-13T17:35:47.226Z,12.58
2023-03-13T17:38:48.330Z,12.31
2023-03-13T17:41:19.191Z,12.36
2023-03-13T17:43:54.617Z,12.32
2023-03-13T17:46:24.661Z,12.35
2023-03-13T17:49:17.567Z,12.37
2023-03-13T17:55:40.840Z,12.08
2023-03-13T18:05:39.346Z,11.81
2023-03-13T18:08:13.165Z,12.01
2023-03-13T18:10:42.252Z,12.07
2023-03-13T18:13:11.433Z,12.03
2023-03-13T18:15:38.518Z,11.95
2023-03-13T18:18:05.382Z,11.89
2023-03-13T18:21:02.420Z,11.69
2023-03-13T18:23:29.015Z,11.80
2023-03-13T18:26:01.249Z,11.67
2023-03-13T18:28:28.034Z,11.77
2023-03-13T18:30:59.559Z,11.63
2023-03-13T18:33:31.228Z,11.44
2023-03-13T18:36:29.356Z,11.56
2023-03-13T18:39:02.447Z,11.45
2023-03-13T18:41:29.163Z,11.46
2023-03-13T18:43:55.859Z,11.39
2023-03-13T18:46:27.279Z,11.21
2023-03-13T18:48:57.275Z,11.14
2023-03-13T18:51:30.992Z,11.04
2023-03-13T18:54:00.496Z,11.11
2023-03-13T18:56:33.817Z,11.09
2023-03-13T18:59:02.659Z,11.00
2023-03-13T19:01:31.198Z,10.83
2023-03-13T19:04:00.074Z,10.81
2023-03-13T19:06:32.954Z,10.67
2023-03-13T19:09:40.998Z,10.84
2023-03-13T19:12:05.115Z,10.56
2023-03-13T19:14:36.496Z,10.41
2023-03-13T19:17:16.586Z,10.47
2023-03-13T19:19:45.582Z,10.62
2023-03-13T19:22:14.751Z,10.63
2023-03-13T19:24:46.435Z,10.45
2023-03-13T19:27:14.809Z,10.62
2023-03-13T19:29:41.871Z,10.44
2023-03-13T19:32:18.229Z,10.49
2023-03-13T19:34:48.773Z,10.50
2023-03-13T19:37:17.022Z,10.58
2023-03-13T19:39:43.951Z,10.55
2023-03-13T19:42:11.053Z,10.54
2023-03-13T19:44:41.427Z,10.55
2023-03-13T19:47:16.246Z,10.57
2023-03-13T19:49:45.763Z,10.33
2023-03-13T19:52:12.504Z,10.47
2023-03-13T19:54:39.245Z,10.39
2023-03-13T19:57:08.166Z,10.47
2023-03-13T19:59:41.984Z,10.33
2023-03-13T20:02:11.222Z,10.43
2023-03-13T20:04:47.906Z,10.27
2023-03-13T20:07:14.533Z,10.24
2023-03-13T20:09:41.219Z,10.29
2023-03-13T20:12:08.631Z,10.20
2023-03-13T20:14:37.614Z,10.21
2023-03-13T20:17:07.013Z,10.15
2023-03-13T20:19:36.284Z,10.09
2023-03-13T20:22:05.832Z,10.04
2023-03-13T20:24:35.806Z,10.12
2023-03-13T20:27:02.511Z,9.94
2023-03-13T20:29:31.763Z,10.08
2023-03-13T20:32:00.396Z,10.01
2023-03-13T20:34:27.715Z,9.93
2023-03-13T20:36:56.526Z,9.74
2023-03-13T20:39:28.120Z,9.83
2023-03-13T20:41:56.318Z,9.72
2023-03-13T20:44:26.354Z,9.72
2023-03-13T20:46:55.426Z,9.54
2023-03-13T20:49:21.934Z,9.56
2023-03-13T20:51:50.887Z,9.59
2023-03-13T20:54:18.175Z,9.51
2023-03-13T20:56:44.764Z,9.25
2023-03-13T20:59:11.495Z,9.36
2023-03-13T21:01:38.286Z,9.45
2023-03-13T21:04:09.695Z,9.33
2023-03-13T21:06:36.494Z,9.10
2023-03-13T21:09:05.442Z,9.16
2023-03-13T21:11:34.404Z,9.11
2023-03-13T21:14:03.625Z,9.07
2023-03-13T21:16:30.231Z,9.06
2023-03-13T21:18:59.330Z,9.02
2023-03-13T21:21:26.193Z,9.04
2023-03-13T21:23:55.168Z,9.04
2023-03-13T21:26:22.651Z,9.03
2023-03-13T21:28:49.385Z,9.05
2023-03-13T21:31:19.749Z,9.10
2023-03-13T21:33:50.099Z,8.73
2023-03-13T21:36:21.023Z,8.76
2023-03-13T21:38:49.827Z,8.92
2023-03-13T21:41:19.270Z,8.86
2023-03-13T21:43:49.899Z,8.85
2023-03-13T21:46:20.998Z,8.76
2023-03-13T21:48:47.685Z,8.78
2023-03-13T21:51:14.668Z,8.70
2023-03-13T21:53:44.489Z,8.58
2023-03-13T21:56:15.940Z,8.52
2023-03-13T21:58:45.331Z,8.54
2023-03-13T22:01:17.845Z,8.67
2023-03-13T22:03:46.652Z,8.53
2023-03-13T22:06:20.978Z,8.61
2023-03-13T22:08:48.992Z,8.53
2023-03-13T22:11:17.990Z,8.42
2023-03-13T22:13:44.704Z,8.44
2023-03-13T22:16:11.768Z,8.52
2023-03-13T22:18:39.837Z,8.58
2023-03-13T22:21:08.705Z,8.52
2023-03-13T22:23:35.348Z,8.33
2023-03-13T22:26:01.951Z,8.43
2023-03-13T22:28:31.056Z,8.39
2023-03-13T22:31:00.783Z,8.01
2023-03-13T22:33:27.820Z,8.25
2023-03-13T22:35:54.573Z,8.17
2023-03-13T22:38:21.710Z,8.15
2023-03-13T22:40:56.167Z,8.08
2023-03-13T22:43:25.355Z,8.19
2023-03-13T22:45:51.813Z,8.02
2023-03-13T22:48:18.379Z,7.95
2023-03-13T22:50:47.411Z,7.76
2023-03-13T22:53:14.345Z,7.91
2023-03-13T22:55:41.111Z,7.86
2023-03-13T22:58:09.992Z,7.53
2023-03-13T23:00:38.901Z,7.62
2023-03-13T23:03:07.737Z,7.44
2023-03-13T23:05:42.048Z,7.57
2023-03-13T23:08:08.758Z,7.69
2023-03-13T23:10:35.968Z,7.42
2023-03-13T23:13:05.060Z,7.56
2023-03-13T23:15:54.808Z,7.36
2023-03-13T23:18:20.914Z,7.38
2023-03-13T23:20:49.772Z,7.43
2023-03-13T23:23:16.627Z,7.14
2023-03-13T23:25:43.304Z,7.11
2023-03-13T23:28:12.277Z,7.34
2023-03-13T23:30:39.059Z,7.23
2023-03-13T23:33:05.709Z,7.21
2023-03-13T23:35:36.185Z,7.33
2023-03-13T23:38:07.709Z,7.41
2023-03-13T23:40:37.127Z,7.42
2023-03-13T23:43:03.983Z,7.29
2023-03-13T23:45:33.816Z,7.36
2023-03-13T23:48:00.363Z,7.35
2023-03-13T23:50:27.044Z,7.35
2023-03-13T23:52:55.824Z,7.39
2023-03-13T23:55:22.442Z,7.29
2023-03-13T23:57:54.821Z,7.44
